Terminal Aerodrome Forecast
Issued by NWS

Current Version | Previous Version | Text Only | Print | Product List | Glossary On
Versions: 1 2 3 4 5 6 7 8 9 10 11 12 13 14
688
FTUS41 KPHI 242338
TAFMIV
TAF
KMIV 242338Z 2500/2524 10012KT 4SM RA OVC025
     FM250600 10010KT 4SM RA OVC007
     FM251100 11010KT P6SM BKN005=

USA.gov is the U.S. government's official web portal to all federal, state and local government web resources and services.